Minerva Atlantica — ZCPR7 — position and weather

sailwx.info

Track history (hours):
 
Tides and Currents Weather Stations Pressure Air Temp Water Temp Dewpoint Dewpoint Depression Visibility Wind Speed Wind Dir Waves Ship Positions

Minerva Atlantica

Last reported at 2017-Feb-28 14:33 UTC. Time now 2017-Feb-28 14:41 UTC.
Position N 55°29' E 014°56'.

Length 250 m; draft 8.2 m.

Type: Ship (hazmat cat A). MMSI: 319161000.

Date/timePositionNaut miles runAvg speedWind from/ knotsBaromVisibWave heightAir tempDewpointWater temp
2017-Feb-28 14:33N 55°29' E 014°56'1313.4
2017-Feb-28 13:33N 55°21' E 014°37'1313.5
2017-Feb-28 12:34N 55°11' E 014°22'1313.4
2017-Feb-28 11:33N 55°01' E 014°06'1414.0
2017-Feb-28 10:33N 54°56' E 013°43'1413.4
2017-Feb-28 09:29N 54°52' E 013°19'1313.3
2017-Feb-28 08:33N 54°48' E 012°59'1313.0
2017-Feb-28 07:33N 54°43' E 012°38'1812.7
2017-Feb-28 06:08N 54°30' E 012°15'713.0
2017-Feb-28 05:33N 54°25' E 012°07'1414.2
2017-Feb-28 04:33N 54°26' E 011°43'1514.6
2017-Feb-28 03:34N 54°32' E 011°20'1414.3
2017-Feb-28 02:34N 54°39' E 010°59'1212.0
2017-Feb-28 01:33N 54°51' E 010°52'1212.5
2017-Feb-28 00:33N 55°02' E 011°01'1212.2
2017-Feb-27 23:33N 55°14' E 011°06'4011.8
2017-Feb-27 20:09N 55°53' E 010°54'813.5
2017-Feb-27 19:32N 56°00' E 011°02'1613.5
2017-Feb-27 18:22N 56°13' E 011°19'5112.3
2017-Feb-27 14:13N 57°03' E 011°41'913.7
2017-Feb-27 13:33N 57°12' E 011°35'1313.5
2017-Feb-27 12:33N 57°24' E 011°26'1313.4
2017-Feb-27 11:33N 57°34' E 011°10'1413.7
2017-Feb-27 10:33N 57°43' E 010°51'1111.5
2017-Feb-27 09:33N 57°47' E 010°31'1111.3
2017-Feb-27 08:33N 57°47' E 010°10'28412.9
2017-Feb-26 10:32N 54°08' E 004°48'12811.6
2017-Feb-25 23:32N 52°08' E 003°33'1211.8
2017-Feb-25 22:33N 52°03' E 003°50'10 9.6
2017-Feb-25 21:33N 51°59' E 004°04'3 3.3
2017-Feb-25 20:33N 51°57' E 004°08'0 0.0
2017-Feb-25 19:33N 51°57' E 004°08'0 0.0
2017-Feb-25 18:33N 51°57' E 004°08'0 0.0
2017-Feb-25 17:33N 51°57' E 004°08'0 0.0
2017-Feb-25 16:33N 51°57' E 004°08'0 0.0
2017-Feb-25 15:33N 51°57' E 004°08'0 0.0
2017-Feb-25 14:33N 51°57' E 004°08'0 0.0
2017-Feb-25 13:33N 51°57' E 004°08'0 0.0
2017-Feb-25 12:33N 51°57' E 004°08'0 0.0
2017-Feb-25 11:33N 51°57' E 004°08'0 0.0
2017-Feb-25 10:33N 51°57' E 004°08'0 0.0
2017-Feb-25 09:33N 51°57' E 004°08'0 0.0
2017-Feb-25 08:33N 51°57' E 004°08'0 0.0
2017-Feb-25 07:33N 51°57' E 004°08'0 0.0
2017-Feb-25 06:33N 51°57' E 004°08'0 0.0
2017-Feb-25 05:33N 51°57' E 004°08'0 0.0
2017-Feb-25 04:33N 51°57' E 004°08'0 0.0
2017-Feb-25 03:30N 51°57' E 004°08'0 0.0
2017-Feb-25 02:33N 51°57' E 004°08'0 0.0
2017-Feb-25 01:33N 51°57' E 004°08'0 0.0
2017-Feb-25 00:33N 51°57' E 004°08'0 0.0
2017-Feb-24 23:30N 51°57' E 004°08'0 0.0
2017-Feb-24 22:33N 51°57' E 004°08'0 0.0
2017-Feb-24 21:33N 51°57' E 004°08'0 0.0
2017-Feb-24 20:30N 51°57' E 004°08'0 0.0
2017-Feb-24 19:33N 51°57' E 004°08'0 0.0
2017-Feb-24 18:33N 51°57' E 004°08'0 0.0
2017-Feb-24 17:33N 51°57' E 004°08'0 0.0
2017-Feb-24 16:33N 51°57' E 004°08'0 0.0
2017-Feb-24 15:33N 51°57' E 004°08'0 0.0
2017-Feb-24 14:30N 51°57' E 004°08'0 0.0
2017-Feb-24 13:33N 51°57' E 004°08'0 0.0
2017-Feb-24 12:33N 51°57' E 004°08'0 0.0
2017-Feb-24 11:33N 51°57' E 004°08'0 0.0
2017-Feb-24 10:33N 51°57' E 004°08'0 0.0
2017-Feb-24 09:33N 51°57' E 004°08'0 0.0
2017-Feb-24 08:33N 51°57' E 004°08'0 0.0
2017-Feb-24 07:33N 51°57' E 004°08'0 0.0
2017-Feb-24 06:33N 51°57' E 004°08'0 0.0
2017-Feb-24 05:33N 51°57' E 004°08'0 0.2
2017-Feb-24 04:34N 51°57' E 004°08'4 4.2
2017-Feb-24 03:33N 51°59' E 004°02'1010.3
2017-Feb-24 02:34N 52°04' E 003°47'2 2.2
2017-Feb-24 01:34N 52°02' E 003°49'6 6.1
2017-Feb-24 00:34N 52°04' E 003°40'7 6.4
2017-Feb-23 23:31N 52°08' E 003°31'3 0.3
2017-Feb-23 12:23N 52°11' E 003°33'0 0.0
2017-Feb-23 11:33N 52°10' E 003°33'0 0.0
2017-Feb-23 10:32N 52°10' E 003°33'0 0.0
2017-Feb-23 07:17N 52°10' E 003°33'0 0.0
2017-Feb-23 06:31N 52°10' E 003°33'0 0.0
2017-Feb-23 05:33N 52°10' E 003°33'0 0.0
2017-Feb-23 04:32N 52°10' E 003°33'0 0.0
2017-Feb-23 03:32N 52°10' E 003°33'0 0.0
2017-Feb-23 02:20N 52°10' E 003°33'2 2.7
2017-Feb-23 01:33N 52°12' E 003°30'41410.3
2017-Feb-21 09:25N 57°49' E 010°29'910.0
2017-Feb-21 08:33N 57°48' E 010°45'9 9.5
2017-Feb-21 07:33N 57°42' E 010°58'1111.3
2017-Feb-21 06:33N 57°34' E 011°13'1110.6
2017-Feb-21 05:33N 57°27' E 011°27'1010.5
2017-Feb-21 04:33N 57°17' E 011°34'1010.3
2017-Feb-21 03:33N 57°08' E 011°40'1010.2
2017-Feb-21 02:33N 56°58' E 011°46'108 9.5
2017-Feb-20 15:17N 55°13' E 011°06'810.5
2017-Feb-20 14:31N 55°05' E 010°59'9 9.6
2017-Feb-20 13:33N 54°57' E 010°54'10 9.8
2017-Feb-20 12:33N 54°47' E 010°49'9 8.8
2017-Feb-20 11:33N 54°39' E 010°52'10 9.9
2017-Feb-20 10:33N 54°36' E 011°09'1010.1
2017-Feb-20 09:33N 54°32' E 011°25'1110.9
2017-Feb-20 08:33N 54°27' E 011°42'1110.8
2017-Feb-20 07:33N 54°26' E 012°00'9 8.9
2017-Feb-20 06:33N 54°31' E 012°13'8 8.3
2017-Feb-20 05:33N 54°38' E 012°21'2410.3
2017-Feb-20 03:15N 54°50' E 012°56'3211.8
2017-Feb-20 00:33N 55°01' E 013°48'1211.6
2017-Feb-19 23:33N 55°06' E 014°06'1212.0
2017-Feb-19 22:33N 55°15' E 014°19'1212.1
2017-Feb-19 21:33N 55°25' E 014°32'1211.7
2017-Feb-19 20:33N 55°31' E 014°49'1212.0
2017-Feb-19 19:33N 55°37' E 015°08'1211.9
2017-Feb-19 18:33N 55°40' E 015°28'1211.9
2017-Feb-19 17:33N 55°43' E 015°49'1211.8
2017-Feb-19 16:33N 55°46' E 016°09'1211.8
2017-Feb-19 15:33N 55°49' E 016°30'1211.6
2017-Feb-19 14:33N 55°52' E 016°50'1211.4
2017-Feb-19 13:31N 55°55' E 017°10'  
Track history (hours):
 
Tides and Currents Weather Stations Pressure Air Temp Water Temp Dewpoint Dewpoint Depression Visibility Wind Speed Wind Dir Waves Ship Positions

Minerva Atlantica

Last reported at 2017-Feb-28 14:33 UTC. Time now 2017-Feb-28 14:41 UTC.
Position N 55°29' E 014°56'.

Length 250 m; draft 8.2 m.

Type: Ship (hazmat cat A). MMSI: 319161000.

Date/timePositionNaut miles runAvg speedWind from/ knotsBaromVisibWave heightAir tempDewpointWater temp
2017-Feb-28 14:33N 55°29' E 014°56'1313.4
2017-Feb-28 13:33N 55°21' E 014°37'1313.5
2017-Feb-28 12:34N 55°11' E 014°22'1313.4
2017-Feb-28 11:33N 55°01' E 014°06'1414.0
2017-Feb-28 10:33N 54°56' E 013°43'1413.4
2017-Feb-28 09:29N 54°52' E 013°19'1313.3
2017-Feb-28 08:33N 54°48' E 012°59'1313.0
2017-Feb-28 07:33N 54°43' E 012°38'1812.7
2017-Feb-28 06:08N 54°30' E 012°15'713.0
2017-Feb-28 05:33N 54°25' E 012°07'1414.2
2017-Feb-28 04:33N 54°26' E 011°43'1514.6
2017-Feb-28 03:34N 54°32' E 011°20'1414.3
2017-Feb-28 02:34N 54°39' E 010°59'1212.0
2017-Feb-28 01:33N 54°51' E 010°52'1212.5
2017-Feb-28 00:33N 55°02' E 011°01'1212.2
2017-Feb-27 23:33N 55°14' E 011°06'4011.8
2017-Feb-27 20:09N 55°53' E 010°54'813.5
2017-Feb-27 19:32N 56°00' E 011°02'1613.5
2017-Feb-27 18:22N 56°13' E 011°19'5112.3
2017-Feb-27 14:13N 57°03' E 011°41'913.7
2017-Feb-27 13:33N 57°12' E 011°35'1313.5
2017-Feb-27 12:33N 57°24' E 011°26'1313.4
2017-Feb-27 11:33N 57°34' E 011°10'1413.7
2017-Feb-27 10:33N 57°43' E 010°51'1111.5
2017-Feb-27 09:33N 57°47' E 010°31'1111.3
2017-Feb-27 08:33N 57°47' E 010°10'28412.9
2017-Feb-26 10:32N 54°08' E 004°48'12811.6
2017-Feb-25 23:32N 52°08' E 003°33'1211.8
2017-Feb-25 22:33N 52°03' E 003°50'10 9.6
2017-Feb-25 21:33N 51°59' E 004°04'3 3.3
2017-Feb-25 20:33N 51°57' E 004°08'0 0.0
2017-Feb-25 19:33N 51°57' E 004°08'0 0.0
2017-Feb-25 18:33N 51°57' E 004°08'0 0.0
2017-Feb-25 17:33N 51°57' E 004°08'0 0.0
2017-Feb-25 16:33N 51°57' E 004°08'0 0.0
2017-Feb-25 15:33N 51°57' E 004°08'0 0.0
2017-Feb-25 14:33N 51°57' E 004°08'0 0.0
2017-Feb-25 13:33N 51°57' E 004°08'0 0.0
2017-Feb-25 12:33N 51°57' E 004°08'0 0.0
2017-Feb-25 11:33N 51°57' E 004°08'0 0.0
2017-Feb-25 10:33N 51°57' E 004°08'0 0.0
2017-Feb-25 09:33N 51°57' E 004°08'0 0.0
2017-Feb-25 08:33N 51°57' E 004°08'0 0.0
2017-Feb-25 07:33N 51°57' E 004°08'0 0.0
2017-Feb-25 06:33N 51°57' E 004°08'0 0.0
2017-Feb-25 05:33N 51°57' E 004°08'0 0.0
2017-Feb-25 04:33N 51°57' E 004°08'0 0.0
2017-Feb-25 03:30N 51°57' E 004°08'0 0.0
2017-Feb-25 02:33N 51°57' E 004°08'0 0.0
2017-Feb-25 01:33N 51°57' E 004°08'0 0.0
2017-Feb-25 00:33N 51°57' E 004°08'0 0.0
2017-Feb-24 23:30N 51°57' E 004°08'0 0.0
2017-Feb-24 22:33N 51°57' E 004°08'0 0.0
2017-Feb-24 21:33N 51°57' E 004°08'0 0.0
2017-Feb-24 20:30N 51°57' E 004°08'0 0.0
2017-Feb-24 19:33N 51°57' E 004°08'0 0.0
2017-Feb-24 18:33N 51°57' E 004°08'0 0.0
2017-Feb-24 17:33N 51°57' E 004°08'0 0.0
2017-Feb-24 16:33N 51°57' E 004°08'0 0.0
2017-Feb-24 15:33N 51°57' E 004°08'0 0.0
2017-Feb-24 14:30N 51°57' E 004°08'0 0.0
2017-Feb-24 13:33N 51°57' E 004°08'0 0.0
2017-Feb-24 12:33N 51°57' E 004°08'0 0.0
2017-Feb-24 11:33N 51°57' E 004°08'0 0.0
2017-Feb-24 10:33N 51°57' E 004°08'0 0.0
2017-Feb-24 09:33N 51°57' E 004°08'0 0.0
2017-Feb-24 08:33N 51°57' E 004°08'0 0.0
2017-Feb-24 07:33N 51°57' E 004°08'0 0.0
2017-Feb-24 06:33N 51°57' E 004°08'0 0.0
2017-Feb-24 05:33N 51°57' E 004°08'0 0.2
2017-Feb-24 04:34N 51°57' E 004°08'4 4.2
2017-Feb-24 03:33N 51°59' E 004°02'1010.3
2017-Feb-24 02:34N 52°04' E 003°47'2 2.2
2017-Feb-24 01:34N 52°02' E 003°49'6 6.1
2017-Feb-24 00:34N 52°04' E 003°40'7 6.4
2017-Feb-23 23:31N 52°08' E 003°31'3 0.3
2017-Feb-23 12:23N 52°11' E 003°33'0 0.0
2017-Feb-23 11:33N 52°10' E 003°33'0 0.0
2017-Feb-23 10:32N 52°10' E 003°33'0 0.0
2017-Feb-23 07:17N 52°10' E 003°33'0 0.0
2017-Feb-23 06:31N 52°10' E 003°33'0 0.0
2017-Feb-23 05:33N 52°10' E 003°33'0 0.0
2017-Feb-23 04:32N 52°10' E 003°33'0 0.0
2017-Feb-23 03:32N 52°10' E 003°33'0 0.0
2017-Feb-23 02:20N 52°10' E 003°33'2 2.7
2017-Feb-23 01:33N 52°12' E 003°30'41410.3
2017-Feb-21 09:25N 57°49' E 010°29'910.0
2017-Feb-21 08:33N 57°48' E 010°45'9 9.5
2017-Feb-21 07:33N 57°42' E 010°58'1111.3
2017-Feb-21 06:33N 57°34' E 011°13'1110.6
2017-Feb-21 05:33N 57°27' E 011°27'1010.5
2017-Feb-21 04:33N 57°17' E 011°34'1010.3
2017-Feb-21 03:33N 57°08' E 011°40'1010.2
2017-Feb-21 02:33N 56°58' E 011°46'108 9.5
2017-Feb-20 15:17N 55°13' E 011°06'810.5
2017-Feb-20 14:31N 55°05' E 010°59'9 9.6
2017-Feb-20 13:33N 54°57' E 010°54'10 9.8
2017-Feb-20 12:33N 54°47' E 010°49'9 8.8
2017-Feb-20 11:33N 54°39' E 010°52'10 9.9
2017-Feb-20 10:33N 54°36' E 011°09'1010.1
2017-Feb-20 09:33N 54°32' E 011°25'1110.9
2017-Feb-20 08:33N 54°27' E 011°42'1110.8
2017-Feb-20 07:33N 54°26' E 012°00'9 8.9
2017-Feb-20 06:33N 54°31' E 012°13'8 8.3
2017-Feb-20 05:33N 54°38' E 012°21'2410.3
2017-Feb-20 03:15N 54°50' E 012°56'3211.8
2017-Feb-20 00:33N 55°01' E 013°48'1211.6
2017-Feb-19 23:33N 55°06' E 014°06'1212.0
2017-Feb-19 22:33N 55°15' E 014°19'1212.1
2017-Feb-19 21:33N 55°25' E 014°32'1211.7
2017-Feb-19 20:33N 55°31' E 014°49'1212.0
2017-Feb-19 19:33N 55°37' E 015°08'1211.9
2017-Feb-19 18:33N 55°40' E 015°28'1211.9
2017-Feb-19 17:33N 55°43' E 015°49'1211.8
2017-Feb-19 16:33N 55°46' E 016°09'1211.8
2017-Feb-19 15:33N 55°49' E 016°30'1211.6
2017-Feb-19 14:33N 55°52' E 016°50'1211.4
2017-Feb-19 13:31N 55°55' E 017°10'  

Dump ship's entire track history